sensor_id;sensor_type;location;lat;lon;timestamp;temperature;humidity
68439;SHT31;55421;51.600;5.718;2022-11-25T00:01:31;9.51;81.86
68439;SHT31;55421;51.600;5.718;2022-11-25T00:03:59;9.51;81.90
68439;SHT31;55421;51.600;5.718;2022-11-25T00:06:34;9.54;81.90
68439;SHT31;55421;51.600;5.718;2022-11-25T00:09:03;9.58;81.95
68439;SHT31;55421;51.600;5.718;2022-11-25T00:11:33;9.60;81.98
68439;SHT31;55421;51.600;5.718;2022-11-25T00:14:01;9.60;81.97
68439;SHT31;55421;51.600;5.718;2022-11-25T00:16:28;9.59;82.00
68439;SHT31;55421;51.600;5.718;2022-11-25T00:18:55;9.58;82.00
68439;SHT31;55421;51.600;5.718;2022-11-25T00:21:24;9.58;82.02
68439;SHT31;55421;51.600;5.718;2022-11-25T00:23:55;9.61;82.09
68439;SHT31;55421;51.600;5.718;2022-11-25T00:26:24;9.64;82.09
68439;SHT31;55421;51.600;5.718;2022-11-25T00:28:53;9.67;82.10
68439;SHT31;55421;51.600;5.718;2022-11-25T00:31:23;9.67;82.10
68439;SHT31;55421;51.600;5.718;2022-11-25T00:33:53;9.68;82.18
68439;SHT31;55421;51.600;5.718;2022-11-25T00:38:59;9.69;82.23
68439;SHT31;55421;51.600;5.718;2022-11-25T00:41:28;9.72;82.29
68439;SHT31;55421;51.600;5.718;2022-11-25T00:44:15;9.77;82.29
68439;SHT31;55421;51.600;5.718;2022-11-25T00:49:40;9.79;82.30
68439;SHT31;55421;51.600;5.718;2022-11-25T00:52:17;9.78;82.31
68439;SHT31;55421;51.600;5.718;2022-11-25T00:54:46;9.80;82.37
68439;SHT31;55421;51.600;5.718;2022-11-25T00:57:15;9.83;82.38
68439;SHT31;55421;51.600;5.718;2022-11-25T00:59:44;9.86;82.39
68439;SHT31;55421;51.600;5.718;2022-11-25T01:02:11;9.89;82.40
68439;SHT31;55421;51.600;5.718;2022-11-25T01:04:41;9.90;82.39
68439;SHT31;55421;51.600;5.718;2022-11-25T01:07:08;9.90;82.39
68439;SHT31;55421;51.600;5.718;2022-11-25T01:09:34;9.89;82.40
68439;SHT31;55421;51.600;5.718;2022-11-25T01:12:01;9.88;82.40
68439;SHT31;55421;51.600;5.718;2022-11-25T01:14:27;9.91;82.40
68439;SHT31;55421;51.600;5.718;2022-11-25T01:16:54;9.94;82.45
68439;SHT31;55421;51.600;5.718;2022-11-25T01:19:20;9.96;82.49
68439;SHT31;55421;51.600;5.718;2022-11-25T01:21:47;9.96;82.47
68439;SHT31;55421;51.600;5.718;2022-11-25T01:24:14;9.95;82.50
68439;SHT31;55421;51.600;5.718;2022-11-25T01:26:41;9.94;82.50
68439;SHT31;55421;51.600;5.718;2022-11-25T01:29:16;9.96;82.50
68439;SHT31;55421;51.600;5.718;2022-11-25T01:31:44;9.98;82.50
68439;SHT31;55421;51.600;5.718;2022-11-25T01:36:44;10.03;82.52
68439;SHT31;55421;51.600;5.718;2022-11-25T01:39:15;10.05;82.58
68439;SHT31;55421;51.600;5.718;2022-11-25T01:41:48;10.06;82.50
68439;SHT31;55421;51.600;5.718;2022-11-25T01:44:19;10.06;82.50
68439;SHT31;55421;51.600;5.718;2022-11-25T01:49:55;10.09;82.50
68439;SHT31;55421;51.600;5.718;2022-11-25T01:52:37;10.13;82.54
68439;SHT31;55421;51.600;5.718;2022-11-25T01:55:24;10.15;82.52
68439;SHT31;55421;51.600;5.718;2022-11-25T01:57:59;10.14;82.50
68439;SHT31;55421;51.600;5.718;2022-11-25T02:00:34;10.14;82.60
68439;SHT31;55421;51.600;5.718;2022-11-25T02:03:02;10.12;82.60
68439;SHT31;55421;51.600;5.718;2022-11-25T02:08:11;10.16;82.60
68439;SHT31;55421;51.600;5.718;2022-11-25T02:10:38;10.17;82.60
68439;SHT31;55421;51.600;5.718;2022-11-25T02:13:05;10.19;82.60
68439;SHT31;55421;51.600;5.718;2022-11-25T02:15:32;10.20;82.61
68439;SHT31;55421;51.600;5.718;2022-11-25T02:18:00;10.18;82.62
68439;SHT31;55421;51.600;5.718;2022-11-25T02:20:27;10.19;82.70
68439;SHT31;55421;51.600;5.718;2022-11-25T02:26:05;10.25;82.72
68439;SHT31;55421;51.600;5.718;2022-11-25T02:28:32;10.27;82.72
68439;SHT31;55421;51.600;5.718;2022-11-25T02:31:00;10.29;82.71
68439;SHT31;55421;51.600;5.718;2022-11-25T02:33:26;10.29;82.70
68439;SHT31;55421;51.600;5.718;2022-11-25T02:35:55;10.29;82.70
68439;SHT31;55421;51.600;5.718;2022-11-25T02:38:34;10.28;82.70
68439;SHT31;55421;51.600;5.718;2022-11-25T02:41:11;10.29;82.71
68439;SHT31;55421;51.600;5.718;2022-11-25T02:44:01;10.32;82.71
68439;SHT31;55421;51.600;5.718;2022-11-25T02:46:28;10.35;82.72
68439;SHT31;55421;51.600;5.718;2022-11-25T02:48:56;10.36;82.81
68439;SHT31;55421;51.600;5.718;2022-11-25T02:51:26;10.38;82.87
68439;SHT31;55421;51.600;5.718;2022-11-25T02:53:56;10.38;82.91
68439;SHT31;55421;51.600;5.718;2022-11-25T02:56:25;10.37;83.05
68439;SHT31;55421;51.600;5.718;2022-11-25T02:58:55;10.39;83.10
68439;SHT31;55421;51.600;5.718;2022-11-25T03:01:22;10.43;83.11
68439;SHT31;55421;51.600;5.718;2022-11-25T03:03:48;10.46;83.27
68439;SHT31;55421;51.600;5.718;2022-11-25T03:06:15;10.46;83.31
68439;SHT31;55421;51.600;5.718;2022-11-25T03:08:42;10.45;83.39
68439;SHT31;55421;51.600;5.718;2022-11-25T03:11:09;10.44;83.49
68439;SHT31;55421;51.600;5.718;2022-11-25T03:13:36;10.43;83.54
68439;SHT31;55421;51.600;5.718;2022-11-25T03:16:02;10.42;83.61
68439;SHT31;55421;51.600;5.718;2022-11-25T03:18:29;10.42;83.69
68439;SHT31;55421;51.600;5.718;2022-11-25T03:20:56;10.44;83.78
68439;SHT31;55421;51.600;5.718;2022-11-25T03:23:22;10.46;83.89
68439;SHT31;55421;51.600;5.718;2022-11-25T03:25:50;10.47;83.90
68439;SHT31;55421;51.600;5.718;2022-11-25T03:28:16;10.47;83.90
68439;SHT31;55421;51.600;5.718;2022-11-25T03:30:43;10.45;83.89
68439;SHT31;55421;51.600;5.718;2022-11-25T03:33:10;10.45;83.83
68439;SHT31;55421;51.600;5.718;2022-11-25T03:35:36;10.45;83.88
68439;SHT31;55421;51.600;5.718;2022-11-25T03:38:03;10.44;84.00
68439;SHT31;55421;51.600;5.718;2022-11-25T03:40:30;10.44;84.19
68439;SHT31;55421;51.600;5.718;2022-11-25T03:42:56;10.42;84.20
68439;SHT31;55421;51.600;5.718;2022-11-25T03:45:23;10.43;84.18
68439;SHT31;55421;51.600;5.718;2022-11-25T03:47:49;10.44;84.20
68439;SHT31;55421;51.600;5.718;2022-11-25T03:50:16;10.47;84.20
68439;SHT31;55421;51.600;5.718;2022-11-25T03:52:43;10.47;84.20
68439;SHT31;55421;51.600;5.718;2022-11-25T03:55:09;10.46;84.20
68439;SHT31;55421;51.600;5.718;2022-11-25T03:57:38;10.42;84.26
68439;SHT31;55421;51.600;5.718;2022-11-25T04:00:05;10.39;84.30
68439;SHT31;55421;51.600;5.718;2022-11-25T04:02:33;10.38;84.32
68439;SHT31;55421;51.600;5.718;2022-11-25T04:05:00;10.38;84.35
68439;SHT31;55421;51.600;5.718;2022-11-25T04:07:28;10.38;84.42
68439;SHT31;55421;51.600;5.718;2022-11-25T04:09:54;10.37;84.48
68439;SHT31;55421;51.600;5.718;2022-11-25T04:12:21;10.36;84.50
68439;SHT31;55421;51.600;5.718;2022-11-25T04:15:06;10.32;84.50
68439;SHT31;55421;51.600;5.718;2022-11-25T04:17:35;10.31;84.50
68439;SHT31;55421;51.600;5.718;2022-11-25T04:20:02;10.30;84.43
68439;SHT31;55421;51.600;5.718;2022-11-25T04:22:29;10.32;84.51
68439;SHT31;55421;51.600;5.718;2022-11-25T04:24:56;10.32;84.50
68439;SHT31;55421;51.600;5.718;2022-11-25T04:27:22;10.29;84.43
68439;SHT31;55421;51.600;5.718;2022-11-25T04:29:49;10.26;84.49
68439;SHT31;55421;51.600;5.718;2022-11-25T04:32:16;10.21;84.48
68439;SHT31;55421;51.600;5.718;2022-11-25T04:34:42;10.20;84.50
68439;SHT31;55421;51.600;5.718;2022-11-25T04:37:09;10.19;84.48
68439;SHT31;55421;51.600;5.718;2022-11-25T04:39:35;10.20;84.55
68439;SHT31;55421;51.600;5.718;2022-11-25T04:42:02;10.22;84.64
68439;SHT31;55421;51.600;5.718;2022-11-25T04:44:47;10.20;84.63
68439;SHT31;55421;51.600;5.718;2022-11-25T04:47:14;10.17;84.58
68439;SHT31;55421;51.600;5.718;2022-11-25T04:49:41;10.15;84.64
68439;SHT31;55421;51.600;5.718;2022-11-25T04:52:07;10.18;84.60
68439;SHT31;55421;51.600;5.718;2022-11-25T04:54:34;10.20;84.60
68439;SHT31;55421;51.600;5.718;2022-11-25T04:57:00;10.18;84.61
68439;SHT31;55421;51.600;5.718;2022-11-25T04:59:27;10.18;84.61
68439;SHT31;55421;51.600;5.718;2022-11-25T05:02:15;10.15;84.59
68439;SHT31;55421;51.600;5.718;2022-11-25T05:04:45;10.11;84.62
68439;SHT31;55421;51.600;5.718;2022-11-25T05:07:14;10.11;84.62
68439;SHT31;55421;51.600;5.718;2022-11-25T05:09:43;10.10;84.58
68439;SHT31;55421;51.600;5.718;2022-11-25T05:12:11;10.08;84.62
68439;SHT31;55421;51.600;5.718;2022-11-25T05:14:42;10.06;84.70
68439;SHT31;55421;51.600;5.718;2022-11-25T05:17:11;10.05;84.73
68439;SHT31;55421;51.600;5.718;2022-11-25T05:19:50;10.02;84.69
68439;SHT31;55421;51.600;5.718;2022-11-25T05:22:18;9.99;84.66
68439;SHT31;55421;51.600;5.718;2022-11-25T05:24:49;9.98;84.69
68439;SHT31;55421;51.600;5.718;2022-11-25T05:27:15;9.96;84.70
68439;SHT31;55421;51.600;5.718;2022-11-25T05:29:43;9.91;84.73
68439;SHT31;55421;51.600;5.718;2022-11-25T05:32:10;9.87;84.81
68439;SHT31;55421;51.600;5.718;2022-11-25T05:34:37;9.82;84.80
68439;SHT31;55421;51.600;5.718;2022-11-25T05:37:04;9.80;84.75
68439;SHT31;55421;51.600;5.718;2022-11-25T05:39:31;9.78;84.84
68439;SHT31;55421;51.600;5.718;2022-11-25T05:41:58;9.76;84.89
68439;SHT31;55421;51.600;5.718;2022-11-25T05:44:24;9.73;84.90
68439;SHT31;55421;51.600;5.718;2022-11-25T05:46:51;9.69;84.92
68439;SHT31;55421;51.600;5.718;2022-11-25T05:49:18;9.63;84.99
68439;SHT31;55421;51.600;5.718;2022-11-25T05:51:46;9.61;84.98
68439;SHT31;55421;51.600;5.718;2022-11-25T05:54:13;9.59;84.95
68439;SHT31;55421;51.600;5.718;2022-11-25T05:56:40;9.57;84.99
68439;SHT31;55421;51.600;5.718;2022-11-25T05:59:07;9.53;84.91
68439;SHT31;55421;51.600;5.718;2022-11-25T06:01:33;9.49;85.01
68439;SHT31;55421;51.600;5.718;2022-11-25T06:04:00;9.43;85.05
68439;SHT31;55421;51.600;5.718;2022-11-25T06:06:29;9.38;85.20
68439;SHT31;55421;51.600;5.718;2022-11-25T06:08:57;9.35;85.14
68439;SHT31;55421;51.600;5.718;2022-11-25T06:11:24;9.32;85.16
68439;SHT31;55421;51.600;5.718;2022-11-25T06:13:50;9.31;85.21
68439;SHT31;55421;51.600;5.718;2022-11-25T06:16:19;9.30;85.36
68439;SHT31;55421;51.600;5.718;2022-11-25T06:18:48;9.28;85.43
68439;SHT31;55421;51.600;5.718;2022-11-25T06:21:15;9.26;85.43
68439;SHT31;55421;51.600;5.718;2022-11-25T06:23:42;9.24;85.41
68439;SHT31;55421;51.600;5.718;2022-11-25T06:26:13;9.23;85.36
68439;SHT31;55421;51.600;5.718;2022-11-25T06:28:45;9.24;85.48
68439;SHT31;55421;51.600;5.718;2022-11-25T06:31:14;9.24;85.59
68439;SHT31;55421;51.600;5.718;2022-11-25T06:33:48;9.22;85.54
68439;SHT31;55421;51.600;5.718;2022-11-25T06:36:17;9.19;85.50
68439;SHT31;55421;51.600;5.718;2022-11-25T06:38:50;9.15;85.51
68439;SHT31;55421;51.600;5.718;2022-11-25T06:41:19;9.13;85.60
68439;SHT31;55421;51.600;5.718;2022-11-25T06:43:47;9.14;85.60
68439;SHT31;55421;51.600;5.718;2022-11-25T06:46:15;9.13;85.60
68439;SHT31;55421;51.600;5.718;2022-11-25T06:48:44;9.13;85.60
68439;SHT31;55421;51.600;5.718;2022-11-25T06:51:12;9.11;85.64
68439;SHT31;55421;51.600;5.718;2022-11-25T06:53:41;9.09;85.67
68439;SHT31;55421;51.600;5.718;2022-11-25T06:56:09;9.05;85.69
68439;SHT31;55421;51.600;5.718;2022-11-25T06:58:49;9.03;85.71
68439;SHT31;55421;51.600;5.718;2022-11-25T07:01:18;9.04;85.70
68439;SHT31;55421;51.600;5.718;2022-11-25T07:03:52;9.04;85.75
68439;SHT31;55421;51.600;5.718;2022-11-25T07:06:21;9.04;85.82
68439;SHT31;55421;51.600;5.718;2022-11-25T07:08:48;9.03;85.92
68439;SHT31;55421;51.600;5.718;2022-11-25T07:13:56;9.00;85.91
68439;SHT31;55421;51.600;5.718;2022-11-25T07:16:26;8.98;85.90
68439;SHT31;55421;51.600;5.718;2022-11-25T07:18:54;9.00;85.97
68439;SHT31;55421;51.600;5.718;2022-11-25T07:21:22;9.03;86.00
68439;SHT31;55421;51.600;5.718;2022-11-25T07:23:50;9.04;85.88
68439;SHT31;55421;51.600;5.718;2022-11-25T07:26:19;9.02;85.83
68439;SHT31;55421;51.600;5.718;2022-11-25T07:28:50;8.99;85.79
68439;SHT31;55421;51.600;5.718;2022-11-25T07:31:20;8.93;85.70
68439;SHT31;55421;51.600;5.718;2022-11-25T07:33:53;8.89;85.74
68439;SHT31;55421;51.600;5.718;2022-11-25T07:36:24;8.91;85.89
68439;SHT31;55421;51.600;5.718;2022-11-25T07:38:52;8.91;85.84
68439;SHT31;55421;51.600;5.718;2022-11-25T07:41:20;8.93;85.91
68439;SHT31;55421;51.600;5.718;2022-11-25T07:43:50;8.96;86.00
68439;SHT31;55421;51.600;5.718;2022-11-25T07:46:23;8.95;85.91
68439;SHT31;55421;51.600;5.718;2022-11-25T07:48:54;8.94;85.90
68439;SHT31;55421;51.600;5.718;2022-11-25T07:53:54;8.95;85.95
68439;SHT31;55421;51.600;5.718;2022-11-25T07:56:23;8.98;85.92
68439;SHT31;55421;51.600;5.718;2022-11-25T07:58:50;9.02;85.95
68439;SHT31;55421;51.600;5.718;2022-11-25T08:01:17;9.02;85.92
68439;SHT31;55421;51.600;5.718;2022-11-25T08:03:45;9.03;86.00
68439;SHT31;55421;51.600;5.718;2022-11-25T08:06:16;9.04;85.97
68439;SHT31;55421;51.600;5.718;2022-11-25T08:08:46;9.04;85.90
68439;SHT31;55421;51.600;5.718;2022-11-25T08:11:17;9.07;86.00
68439;SHT31;55421;51.600;5.718;2022-11-25T08:13:48;9.12;86.02
68439;SHT31;55421;51.600;5.718;2022-11-25T08:16:16;9.20;86.09
68439;SHT31;55421;51.600;5.718;2022-11-25T08:18:45;9.22;85.96
68439;SHT31;55421;51.600;5.718;2022-11-25T08:21:13;9.23;85.88
68439;SHT31;55421;51.600;5.718;2022-11-25T08:23:42;9.24;85.90
68439;SHT31;55421;51.600;5.718;2022-11-25T08:26:14;9.27;85.85
68439;SHT31;55421;51.600;5.718;2022-11-25T08:28:44;9.31;85.77
68439;SHT31;55421;51.600;5.718;2022-11-25T08:31:16;9.32;85.69
68439;SHT31;55421;51.600;5.718;2022-11-25T08:33:54;9.30;85.69
68439;SHT31;55421;51.600;5.718;2022-11-25T08:36:21;9.29;85.68
68439;SHT31;55421;51.600;5.718;2022-11-25T08:38:50;9.29;85.70
68439;SHT31;55421;51.600;5.718;2022-11-25T08:41:21;9.29;85.70
68439;SHT31;55421;51.600;5.718;2022-11-25T08:43:52;9.30;85.69
68439;SHT31;55421;51.600;5.718;2022-11-25T08:46:20;9.36;85.70
68439;SHT31;55421;51.600;5.718;2022-11-25T08:48:51;9.41;85.69
68439;SHT31;55421;51.600;5.718;2022-11-25T08:51:19;9.46;85.60
68439;SHT31;55421;51.600;5.718;2022-11-25T08:53:49;9.47;85.54
68439;SHT31;55421;51.600;5.718;2022-11-25T08:56:17;9.50;85.51
68439;SHT31;55421;51.600;5.718;2022-11-25T08:58:46;9.50;85.50
68439;SHT31;55421;51.600;5.718;2022-11-25T09:01:14;9.52;85.43
68439;SHT31;55421;51.600;5.718;2022-11-25T09:03:43;9.56;85.40
68439;SHT31;55421;51.600;5.718;2022-11-25T09:06:13;9.61;85.42
68439;SHT31;55421;51.600;5.718;2022-11-25T09:08:41;9.67;85.40
68439;SHT31;55421;51.600;5.718;2022-11-25T09:11:12;9.72;85.35
68439;SHT31;55421;51.600;5.718;2022-11-25T09:13:39;9.73;85.32
68439;SHT31;55421;51.600;5.718;2022-11-25T09:16:05;9.76;85.25
68439;SHT31;55421;51.600;5.718;2022-11-25T09:18:33;9.80;85.14
68439;SHT31;55421;51.600;5.718;2022-11-25T09:21:11;9.84;85.10
68439;SHT31;55421;51.600;5.718;2022-11-25T09:23:42;9.89;85.08
68439;SHT31;55421;51.600;5.718;2022-11-25T09:26:13;9.91;84.99
68439;SHT31;55421;51.600;5.718;2022-11-25T09:28:56;9.96;84.94
68439;SHT31;55421;51.600;5.718;2022-11-25T09:31:23;9.98;84.91
68439;SHT31;55421;51.600;5.718;2022-11-25T09:33:50;10.01;84.85
68439;SHT31;55421;51.600;5.718;2022-11-25T09:36:17;10.05;84.79
68439;SHT31;55421;51.600;5.718;2022-11-25T09:38:45;10.12;84.79
68439;SHT31;55421;51.600;5.718;2022-11-25T09:41:49;10.17;84.68
68439;SHT31;55421;51.600;5.718;2022-11-25T09:44:50;10.21;84.53
68439;SHT31;55421;51.600;5.718;2022-11-25T09:48:25;10.24;84.43
68439;SHT31;55421;51.600;5.718;2022-11-25T09:55:11;10.36;84.22
68439;SHT31;55421;51.600;5.718;2022-11-25T10:00:39;10.45;83.96
68439;SHT31;55421;51.600;5.718;2022-11-25T10:03:14;10.45;83.87
68439;SHT31;55421;51.600;5.718;2022-11-25T10:05:59;10.51;83.90
68439;SHT31;55421;51.600;5.718;2022-11-25T10:09:09;10.60;83.86
68439;SHT31;55421;51.600;5.718;2022-11-25T10:14:41;10.72;83.58
68439;SHT31;55421;51.600;5.718;2022-11-25T10:20:24;10.75;83.37
68439;SHT31;55421;51.600;5.718;2022-11-25T10:23:07;10.78;83.23
68439;SHT31;55421;51.600;5.718;2022-11-25T10:26:15;10.84;83.10
68439;SHT31;55421;51.600;5.718;2022-11-25T10:28:49;10.89;82.94
68439;SHT31;55421;51.600;5.718;2022-11-25T10:31:30;10.92;82.81
68439;SHT31;55421;51.600;5.718;2022-11-25T10:34:03;10.93;82.70
68439;SHT31;55421;51.600;5.718;2022-11-25T10:36:49;10.95;82.68
68439;SHT31;55421;51.600;5.718;2022-11-25T10:41:57;10.98;82.49
68439;SHT31;55421;51.600;5.718;2022-11-25T10:44:30;11.04;82.43
68439;SHT31;55421;51.600;5.718;2022-11-25T10:49:58;11.10;82.17
68439;SHT31;55421;51.600;5.718;2022-11-25T10:52:39;11.11;82.06
68439;SHT31;55421;51.600;5.718;2022-11-25T10:55:20;11.12;81.84
68439;SHT31;55421;51.600;5.718;2022-11-25T10:57:53;11.15;81.82
68439;SHT31;55421;51.600;5.718;2022-11-25T11:00:25;11.21;81.80
68439;SHT31;55421;51.600;5.718;2022-11-25T11:03:15;11.27;81.61
68439;SHT31;55421;51.600;5.718;2022-11-25T11:05:50;11.28;81.34
68439;SHT31;55421;51.600;5.718;2022-11-25T11:08:21;11.28;81.33
68439;SHT31;55421;51.600;5.718;2022-11-25T11:16:36;11.34;81.00
68439;SHT31;55421;51.600;5.718;2022-11-25T11:19:18;11.39;80.81
68439;SHT31;55421;51.600;5.718;2022-11-25T11:21:49;11.42;80.48
68439;SHT31;55421;51.600;5.718;2022-11-25T11:24:24;11.44;80.07
68439;SHT31;55421;51.600;5.718;2022-11-25T11:29:45;11.49;80.07
68439;SHT31;55421;51.600;5.718;2022-11-25T11:32:19;11.55;79.96
68439;SHT31;55421;51.600;5.718;2022-11-25T11:37:53;11.63;79.66
68439;SHT31;55421;51.600;5.718;2022-11-25T11:40:38;11.63;79.18
68439;SHT31;55421;51.600;5.718;2022-11-25T11:46:30;11.65;79.50
68439;SHT31;55421;51.600;5.718;2022-11-25T11:49:16;11.70;79.37
68439;SHT31;55421;51.600;5.718;2022-11-25T11:52:08;11.75;79.30
68439;SHT31;55421;51.600;5.718;2022-11-25T11:54:42;11.78;79.22
68439;SHT31;55421;51.600;5.718;2022-11-25T12:00:13;11.80;78.69
68439;SHT31;55421;51.600;5.718;2022-11-25T12:02:49;11.81;78.78
68439;SHT31;55421;51.600;5.718;2022-11-25T12:05:35;11.82;78.92
68439;SHT31;55421;51.600;5.718;2022-11-25T12:08:13;11.86;78.70
68439;SHT31;55421;51.600;5.718;2022-11-25T12:10:57;11.91;78.47
68439;SHT31;55421;51.600;5.718;2022-11-25T12:13:39;11.94;78.08
68439;SHT31;55421;51.600;5.718;2022-11-25T12:25:16;12.02;77.56
68439;SHT31;55421;51.600;5.718;2022-11-25T12:28:02;12.04;77.40
68439;SHT31;55421;51.600;5.718;2022-11-25T12:30:57;12.04;77.26
68439;SHT31;55421;51.600;5.718;2022-11-25T12:33:42;12.03;76.89
68439;SHT31;55421;51.600;5.718;2022-11-25T12:36:38;12.03;76.83
68439;SHT31;55421;51.600;5.718;2022-11-25T12:42:19;12.05;76.84
68439;SHT31;55421;51.600;5.718;2022-11-25T12:44:52;12.04;76.73
68439;SHT31;55421;51.600;5.718;2022-11-25T12:47:26;12.04;76.86
68439;SHT31;55421;51.600;5.718;2022-11-25T12:49:53;12.03;76.79
68439;SHT31;55421;51.600;5.718;2022-11-25T12:52:30;12.04;76.58
68439;SHT31;55421;51.600;5.718;2022-11-25T12:55:27;12.09;76.70
68439;SHT31;55421;51.600;5.718;2022-11-25T13:01:15;12.16;76.85
68439;SHT31;55421;51.600;5.718;2022-11-25T13:04:34;12.17;76.59
68439;SHT31;55421;51.600;5.718;2022-11-25T13:07:28;12.16;76.48
68439;SHT31;55421;51.600;5.718;2022-11-25T13:16:14;12.24;76.88
68439;SHT31;55421;51.600;5.718;2022-11-25T13:18:43;12.25;76.75
68439;SHT31;55421;51.600;5.718;2022-11-25T13:21:11;12.24;76.97
68439;SHT31;55421;51.600;5.718;2022-11-25T13:23:50;12.21;76.89
68439;SHT31;55421;51.600;5.718;2022-11-25T13:28:53;12.14;76.94
68439;SHT31;55421;51.600;5.718;2022-11-25T13:31:28;12.15;77.12
68439;SHT31;55421;51.600;5.718;2022-11-25T13:34:06;12.18;77.16
68439;SHT31;55421;51.600;5.718;2022-11-25T13:36:46;12.21;77.10
68439;SHT31;55421;51.600;5.718;2022-11-25T13:39:17;12.22;77.12
68439;SHT31;55421;51.600;5.718;2022-11-25T13:42:00;12.21;77.10
68439;SHT31;55421;51.600;5.718;2022-11-25T13:44:50;12.21;77.21
68439;SHT31;55421;51.600;5.718;2022-11-25T13:49:54;12.18;77.22
68439;SHT31;55421;51.600;5.718;2022-11-25T13:52:32;12.20;77.30
68439;SHT31;55421;51.600;5.718;2022-11-25T13:57:46;12.24;77.32
68439;SHT31;55421;51.600;5.718;2022-11-25T14:06:01;12.19;77.40
68439;SHT31;55421;51.600;5.718;2022-11-25T14:20:57;12.10;77.66
68439;SHT31;55421;51.600;5.718;2022-11-25T14:26:24;12.00;77.78
68439;SHT31;55421;51.600;5.718;2022-11-25T14:29:02;11.96;77.87
68439;SHT31;55421;51.600;5.718;2022-11-25T14:31:41;11.92;78.03
68439;SHT31;55421;51.600;5.718;2022-11-25T14:34:19;11.92;78.13
68439;SHT31;55421;51.600;5.718;2022-11-25T14:36:53;11.96;78.19
68439;SHT31;55421;51.600;5.718;2022-11-25T14:39:37;12.01;78.26
68439;SHT31;55421;51.600;5.718;2022-11-25T14:42:15;12.06;78.30
68439;SHT31;55421;51.600;5.718;2022-11-25T14:44:47;12.07;78.29
68439;SHT31;55421;51.600;5.718;2022-11-25T14:47:22;12.07;78.29
68439;SHT31;55421;51.600;5.718;2022-11-25T14:49:53;12.04;78.27
68439;SHT31;55421;51.600;5.718;2022-11-25T14:52:24;12.02;78.30
68439;SHT31;55421;51.600;5.718;2022-11-25T14:54:55;12.02;78.33
68439;SHT31;55421;51.600;5.718;2022-11-25T14:57:25;12.04;78.40
68439;SHT31;55421;51.600;5.718;2022-11-25T15:00:01;12.05;78.39
68439;SHT31;55421;51.600;5.718;2022-11-25T15:02:37;12.04;78.30
68439;SHT31;55421;51.600;5.718;2022-11-25T15:07:33;11.98;78.40
68439;SHT31;55421;51.600;5.718;2022-11-25T15:10:00;11.95;78.47
68439;SHT31;55421;51.600;5.718;2022-11-25T15:12:28;11.91;78.50
68439;SHT31;55421;51.600;5.718;2022-11-25T15:14:58;11.89;78.50
68439;SHT31;55421;51.600;5.718;2022-11-25T15:17:29;11.87;78.50
68439;SHT31;55421;51.600;5.718;2022-11-25T15:20:08;11.82;78.50
68439;SHT31;55421;51.600;5.718;2022-11-25T15:22:46;11.75;78.61
68439;SHT31;55421;51.600;5.718;2022-11-25T15:25:17;11.69;78.74
68439;SHT31;55421;51.600;5.718;2022-11-25T15:27:45;11.63;78.89
68439;SHT31;55421;51.600;5.718;2022-11-25T15:30:16;11.58;79.02
68439;SHT31;55421;51.600;5.718;2022-11-25T15:32:49;11.53;79.10
68439;SHT31;55421;51.600;5.718;2022-11-25T15:35:18;11.51;79.15
68439;SHT31;55421;51.600;5.718;2022-11-25T15:37:51;11.49;79.20
68439;SHT31;55421;51.600;5.718;2022-11-25T15:40:36;11.45;79.27
68439;SHT31;55421;51.600;5.718;2022-11-25T15:43:23;11.38;79.36
68439;SHT31;55421;51.600;5.718;2022-11-25T15:45:54;11.30;79.45
68439;SHT31;55421;51.600;5.718;2022-11-25T15:48:31;11.22;79.52
68439;SHT31;55421;51.600;5.718;2022-11-25T15:51:05;11.15;79.65
68439;SHT31;55421;51.600;5.718;2022-11-25T15:53:49;11.14;79.80
68439;SHT31;55421;51.600;5.718;2022-11-25T15:56:20;11.15;79.86
68439;SHT31;55421;51.600;5.718;2022-11-25T15:58:51;11.16;79.91
68439;SHT31;55421;51.600;5.718;2022-11-25T16:01:22;11.18;79.99
68439;SHT31;55421;51.600;5.718;2022-11-25T16:03:50;11.19;80.01
68439;SHT31;55421;51.600;5.718;2022-11-25T16:06:18;11.18;80.08
68439;SHT31;55421;51.600;5.718;2022-11-25T16:08:51;11.16;80.12
68439;SHT31;55421;51.600;5.718;2022-11-25T16:11:27;11.14;80.20
68439;SHT31;55421;51.600;5.718;2022-11-25T16:14:41;11.14;80.28
68439;SHT31;55421;51.600;5.718;2022-11-25T16:17:02;11.14;80.38
68439;SHT31;55421;51.600;5.718;2022-11-25T16:19:42;11.15;80.48
68439;SHT31;55421;51.600;5.718;2022-11-25T16:22:15;11.13;80.56
68439;SHT31;55421;51.600;5.718;2022-11-25T16:27:15;11.07;80.70
68439;SHT31;55421;51.600;5.718;2022-11-25T16:30:06;11.01;80.76
68439;SHT31;55421;51.600;5.718;2022-11-25T16:32:44;10.97;80.85
68439;SHT31;55421;51.600;5.718;2022-11-25T16:35:12;10.96;80.90
68439;SHT31;55421;51.600;5.718;2022-11-25T16:37:44;10.96;80.90
68439;SHT31;55421;51.600;5.718;2022-11-25T16:40:11;10.92;80.90
68439;SHT31;55421;51.600;5.718;2022-11-25T16:42:43;10.90;81.01
68439;SHT31;55421;51.600;5.718;2022-11-25T16:45:18;10.88;81.11
68439;SHT31;55421;51.600;5.718;2022-11-25T16:47:53;10.85;81.23
68439;SHT31;55421;51.600;5.718;2022-11-25T16:50:20;10.84;81.39
68439;SHT31;55421;51.600;5.718;2022-11-25T16:52:48;10.85;81.40
68439;SHT31;55421;51.600;5.718;2022-11-25T16:55:15;10.88;81.45
68439;SHT31;55421;51.600;5.718;2022-11-25T16:57:43;10.89;81.47
68439;SHT31;55421;51.600;5.718;2022-11-25T17:00:11;10.88;81.50
68439;SHT31;55421;51.600;5.718;2022-11-25T17:02:41;10.85;81.50
68439;SHT31;55421;51.600;5.718;2022-11-25T17:05:20;10.81;81.50
68439;SHT31;55421;51.600;5.718;2022-11-25T17:07:50;10.76;81.60
68439;SHT31;55421;51.600;5.718;2022-11-25T17:10:17;10.73;81.60
68439;SHT31;55421;51.600;5.718;2022-11-25T17:12:45;10.72;81.56
68439;SHT31;55421;51.600;5.718;2022-11-25T17:15:17;10.70;81.60
68439;SHT31;55421;51.600;5.718;2022-11-25T17:17:53;10.66;81.60
68439;SHT31;55421;51.600;5.718;2022-11-25T17:20:20;10.61;81.60
68439;SHT31;55421;51.600;5.718;2022-11-25T17:22:50;10.55;81.66
68439;SHT31;55421;51.600;5.718;2022-11-25T17:25:18;10.49;81.75
68439;SHT31;55421;51.600;5.718;2022-11-25T17:27:49;10.46;81.80
68439;SHT31;55421;51.600;5.718;2022-11-25T17:30:18;10.44;81.81
68439;SHT31;55421;51.600;5.718;2022-11-25T17:32:56;10.42;81.84
68439;SHT31;55421;51.600;5.718;2022-11-25T17:35:27;10.40;81.88
68439;SHT31;55421;51.600;5.718;2022-11-25T17:37:53;10.37;81.90
68439;SHT31;55421;51.600;5.718;2022-11-25T17:40:24;10.33;81.90
68439;SHT31;55421;51.600;5.718;2022-11-25T17:42:51;10.28;81.90
68439;SHT31;55421;51.600;5.718;2022-11-25T17:45:18;10.22;81.98
68439;SHT31;55421;51.600;5.718;2022-11-25T17:47:47;10.19;82.00
68439;SHT31;55421;51.600;5.718;2022-11-25T17:50:21;10.18;82.00
68439;SHT31;55421;51.600;5.718;2022-11-25T17:52:51;10.17;82.08
68439;SHT31;55421;51.600;5.718;2022-11-25T17:55:18;10.17;82.18
68439;SHT31;55421;51.600;5.718;2022-11-25T17:57:49;10.17;82.22
68439;SHT31;55421;51.600;5.718;2022-11-25T18:00:17;10.14;82.28